createdAt,value
2023-10-24T00:00:43.174Z,98912.28
2023-10-24T00:01:44.892Z,98904.09
2023-10-24T00:02:46.551Z,98909.66
2023-10-24T00:03:48.280Z,98911.03
2023-10-24T00:04:49.940Z,98914.06
2023-10-24T00:05:51.582Z,98914.59
2023-10-24T00:06:53.164Z,98914.06
2023-10-24T00:07:55.763Z,98903.84
2023-10-24T00:08:57.345Z,98908.81
2023-10-24T00:09:58.895Z,98902.31
2023-10-24T00:11:01.912Z,98891.53
2023-10-24T00:12:03.817Z,98895.94
2023-10-24T00:13:05.449Z,98895.38
2023-10-24T00:14:07.058Z,98887.38
2023-10-24T00:15:09.015Z,98889.16
2023-10-24T00:16:10.682Z,98883.78
2023-10-24T00:17:12.426Z,98880.06
2023-10-24T00:18:14.054Z,98878.81
2023-10-24T00:19:15.717Z,98885.03
2023-10-24T00:20:17.356Z,98880.47
2023-10-24T00:21:18.986Z,98882.25
2023-10-24T00:22:20.652Z,98882.53
2023-10-24T00:23:22.377Z,98879.47
2023-10-24T00:24:24.020Z,98880.84
2023-10-24T00:25:25.593Z,98879.75
2023-10-24T00:26:27.211Z,98881.84
2023-10-24T00:27:30.744Z,98870.63
2023-10-24T00:28:32.388Z,98873.66
2023-10-24T00:29:33.988Z,98871.25
2023-10-24T00:30:35.966Z,98867.75
2023-10-24T00:31:37.679Z,98868.47
2023-10-24T00:32:39.834Z,98874.56
2023-10-24T00:33:41.479Z,98873.84
2023-10-24T00:34:43.289Z,98870.81
2023-10-24T00:35:45.014Z,98864.75
2023-10-24T00:36:47.033Z,98871.53
2023-10-24T00:37:48.656Z,98873.75
2023-10-24T00:38:50.336Z,98877.63
2023-10-24T00:39:51.916Z,98878.13
2023-10-24T00:40:53.550Z,98873.97
2023-10-24T00:41:55.152Z,98879.56
2023-10-24T00:43:03.199Z,98872.53
2023-10-24T00:44:05.194Z,98878.91
2023-10-24T00:45:07.599Z,98875.47
2023-10-24T00:46:10.805Z,98876.38
2023-10-24T00:47:12.554Z,98879.38
2023-10-24T00:48:14.165Z,98881.44
2023-10-24T00:49:16.305Z,98874.94
2023-10-24T00:50:17.905Z,98878.88
2023-10-24T00:51:20.290Z,98876.66
2023-10-24T00:52:22.575Z,98879.69
2023-10-24T00:53:24.234Z,98877.56
2023-10-24T00:54:30.110Z,98884.53
2023-10-24T00:55:32.660Z,98878.44
2023-10-24T00:56:35.841Z,98875.03
2023-10-24T00:57:37.711Z,98879.88
2023-10-24T00:58:40.911Z,98887.91
2023-10-24T00:59:45.329Z,98883.19
2023-10-24T01:00:47.341Z,98887.50
2023-10-24T01:01:49.849Z,98886.66
2023-10-24T01:02:51.809Z,98879.06
2023-10-24T01:03:54.631Z,98874.09
2023-10-24T01:05:00.532Z,98873.00
2023-10-24T01:06:02.493Z,98873.69
2023-10-24T01:07:04.067Z,98880.59
2023-10-24T01:08:05.925Z,98873.41
2023-10-24T01:09:07.551Z,98871.44
2023-10-24T01:10:09.450Z,98873.28
2023-10-24T01:11:11.280Z,98874.66
2023-10-24T01:12:12.976Z,98869.50
2023-10-24T01:13:14.917Z,98867.44
2023-10-24T01:14:16.599Z,98866.34
2023-10-24T01:15:18.915Z,98868.69
2023-10-24T01:16:20.556Z,98864.28
2023-10-24T01:17:22.365Z,98859.84
2023-10-24T01:18:24.056Z,98854.88
2023-10-24T01:19:25.711Z,98851.41
2023-10-24T01:20:27.336Z,98853.75
2023-10-24T01:21:28.924Z,98850.97
2023-10-24T01:22:30.521Z,98857.09
2023-10-24T01:23:32.234Z,98849.31
2023-10-24T01:24:33.821Z,98856.25
2023-10-24T01:25:42.730Z,98856.94
2023-10-24T01:26:45.085Z,98857.47
2023-10-24T01:27:47.119Z,98852.09
2023-10-24T01:28:48.712Z,98855.53
2023-10-24T01:29:50.363Z,98840.75
2023-10-24T01:30:51.921Z,98838.09
2023-10-24T01:31:53.938Z,98836.31
2023-10-24T01:32:55.633Z,98820.41
2023-10-24T01:33:57.289Z,98818.59
2023-10-24T01:34:58.911Z,98808.09
2023-10-24T01:36:00.560Z,98809.19
2023-10-24T01:37:02.123Z,98812.66
2023-10-24T01:38:03.730Z,98820.41
2023-10-24T01:39:06.343Z,98826.50
2023-10-24T01:40:09.677Z,98827.75
2023-10-24T01:41:11.310Z,98821.94
2023-10-24T01:42:12.866Z,98826.38
2023-10-24T01:43:14.658Z,98832.72
2023-10-24T01:44:16.228Z,98828.84
2023-10-24T01:45:17.875Z,98822.09
2023-10-24T01:46:19.646Z,98816.84
2023-10-24T01:47:21.298Z,98815.59
2023-10-24T01:48:23.366Z,98812.00
2023-10-24T01:49:24.992Z,98812.53
2023-10-24T01:50:26.740Z,98811.28
2023-10-24T01:51:28.320Z,98816.69
2023-10-24T01:52:32.010Z,98809.50
2023-10-24T01:53:33.624Z,98809.50
2023-10-24T01:54:35.180Z,98799.81
2023-10-24T01:55:36.840Z,98806.47
2023-10-24T01:56:40.310Z,98807.00
2023-10-24T01:57:41.869Z,98807.69
2023-10-24T01:58:43.488Z,98811.16
2023-10-24T01:59:45.278Z,98813.06
2023-10-24T02:00:46.936Z,98795.53
2023-10-24T02:01:48.601Z,98799.00
2023-10-24T02:02:50.357Z,98795.53
2023-10-24T02:03:52.017Z,98805.88
2023-10-24T02:04:56.042Z,98809.34
2023-10-24T02:06:00.134Z,98802.31
2023-10-24T02:07:02.071Z,98814.44
2023-10-24T02:08:03.774Z,98808.38
2023-10-24T02:09:05.518Z,98809.34
2023-10-24T02:10:07.717Z,98802.56
2023-10-24T02:11:09.318Z,98808.53
2023-10-24T02:12:10.910Z,98804.66
2023-10-24T02:13:12.980Z,98810.19
2023-10-24T02:14:14.750Z,98805.47
2023-10-24T02:15:16.467Z,98802.44
2023-10-24T02:16:18.252Z,98799.81
2023-10-24T02:17:19.893Z,98800.38
2023-10-24T02:18:21.579Z,98791.53
2023-10-24T02:19:23.279Z,98800.66
2023-10-24T02:20:24.851Z,98802.03
2023-10-24T02:21:26.407Z,98803.28
2023-10-24T02:22:28.011Z,98800.22
2023-10-24T02:23:29.622Z,98805.06
2023-10-24T02:24:32.643Z,98800.50
2023-10-24T02:25:37.354Z,98794.16
2023-10-24T02:26:39.060Z,98797.34
2023-10-24T02:27:40.615Z,98795.28
2023-10-24T02:28:43.000Z,98792.50
2023-10-24T02:29:44.606Z,98799.97
2023-10-24T02:30:46.207Z,98792.75
2023-10-24T02:31:47.890Z,98787.38
2023-10-24T02:32:50.258Z,98790.56
2023-10-24T02:33:51.865Z,98774.81
2023-10-24T02:34:54.371Z,98779.09
2023-10-24T02:36:06.700Z,98779.59
2023-10-24T02:37:08.361Z,98778.25
2023-10-24T02:38:09.957Z,98775.78
2023-10-24T02:39:11.522Z,98784.47
2023-10-24T02:40:13.162Z,98779.22
2023-10-24T02:41:14.836Z,98772.16
2023-10-24T02:42:16.554Z,98771.31
2023-10-24T02:43:18.170Z,98775.78
2023-10-24T02:44:20.242Z,98771.31
2023-10-24T02:45:21.834Z,98779.91
2023-10-24T02:46:23.521Z,98773.81
2023-10-24T02:47:25.182Z,98784.47
2023-10-24T02:48:26.847Z,98788.91
2023-10-24T02:49:28.482Z,98791.25
2023-10-24T02:50:31.441Z,98796.50
2023-10-24T02:51:33.046Z,98809.47
2023-10-24T02:52:34.685Z,98807.41
2023-10-24T02:53:36.363Z,98802.72
2023-10-24T02:54:37.931Z,98808.50
2023-10-24T02:55:39.549Z,98812.38
2023-10-24T02:56:41.169Z,98812.81
2023-10-24T02:57:42.775Z,98808.09
2023-10-24T02:58:44.383Z,98807.00
2023-10-24T02:59:46.018Z,98808.53
2023-10-24T03:00:47.738Z,98809.78
2023-10-24T03:01:49.336Z,98813.63
2023-10-24T03:02:51.031Z,98809.63
2023-10-24T03:03:52.877Z,98809.75
2023-10-24T03:04:54.539Z,98811.25
2023-10-24T03:05:56.187Z,98806.09
2023-10-24T03:06:57.785Z,98806.09
2023-10-24T03:07:59.450Z,98808.47
2023-10-24T03:09:01.070Z,98806.09
2023-10-24T03:10:02.685Z,98802.09
2023-10-24T03:11:04.383Z,98793.78
2023-10-24T03:12:07.847Z,98795.34
2023-10-24T03:13:09.529Z,98784.19
2023-10-24T03:14:11.096Z,98789.56
2023-10-24T03:15:12.743Z,98785.97
2023-10-24T03:16:14.370Z,98790.13
2023-10-24T03:17:16.113Z,98780.59
2023-10-24T03:18:17.841Z,98781.16
2023-10-24T03:19:19.504Z,98779.22
2023-10-24T03:20:21.229Z,98779.78
2023-10-24T03:21:24.651Z,98774.09
2023-10-24T03:22:26.390Z,98783.91
2023-10-24T03:23:27.998Z,98784.47
2023-10-24T03:24:29.608Z,98781.00
2023-10-24T03:25:31.320Z,98788.75
2023-10-24T03:26:32.946Z,98787.50
2023-10-24T03:27:34.528Z,98792.63
2023-10-24T03:28:37.825Z,98793.31
2023-10-24T03:29:40.085Z,98794.16
2023-10-24T03:30:41.734Z,98802.44
2023-10-24T03:31:44.733Z,98795.41
2023-10-24T03:32:46.404Z,98804.25
2023-10-24T03:33:48.073Z,98805.19
2023-10-24T03:34:49.885Z,98795.41
2023-10-24T03:35:51.483Z,98800.78
2023-10-24T03:36:53.072Z,98801.75
2023-10-24T03:37:54.673Z,98800.91
2023-10-24T03:38:56.273Z,98797.19
2023-10-24T03:39:57.831Z,98798.16
2023-10-24T03:40:59.492Z,98800.66
2023-10-24T03:42:01.476Z,98798.28
2023-10-24T03:43:03.044Z,98791.81
2023-10-24T03:44:04.970Z,98783.94
2023-10-24T03:45:07.120Z,98784.91
2023-10-24T03:46:08.833Z,98771.78
2023-10-24T03:47:10.646Z,98783.66
2023-10-24T03:48:15.194Z,98771.47
2023-10-24T03:49:17.401Z,98769.81
2023-10-24T03:50:19.305Z,98764.69
2023-10-24T03:51:20.860Z,98775.22
2023-10-24T03:52:22.514Z,98771.78
2023-10-24T03:53:24.107Z,98776.06
2023-10-24T03:54:25.731Z,98782.28
2023-10-24T03:55:27.397Z,98782.97
2023-10-24T03:56:28.992Z,98783.78
2023-10-24T03:57:30.589Z,98781.72
2023-10-24T03:58:32.263Z,98782.69
2023-10-24T03:59:33.911Z,98780.91
2023-10-24T04:00:35.634Z,98778.94
2023-10-24T04:01:37.270Z,98768.44
2023-10-24T04:02:39.051Z,98768.28
2023-10-24T04:03:40.797Z,98763.88
2023-10-24T04:04:42.656Z,98763.03
2023-10-24T04:05:44.419Z,98762.22
2023-10-24T04:06:45.993Z,98765.41
2023-10-24T04:07:47.917Z,98764.84
2023-10-24T04:08:49.548Z,98764.16
2023-10-24T04:09:51.114Z,98764.69
2023-10-24T04:10:52.725Z,98756.69
2023-10-24T04:11:54.305Z,98755.31
2023-10-24T04:12:55.885Z,98751.44
2023-10-24T04:13:57.510Z,98763.44
2023-10-24T04:14:59.064Z,98755.28
2023-10-24T04:16:00.626Z,98749.34
2023-10-24T04:17:02.416Z,98751.97
2023-10-24T04:18:04.297Z,98755.44
2023-10-24T04:19:05.893Z,98752.34
2023-10-24T04:20:09.973Z,98739.41
2023-10-24T04:21:15.139Z,98738.72
2023-10-24T04:22:16.772Z,98731.13
2023-10-24T04:23:18.554Z,98729.72
2023-10-24T04:24:20.166Z,98731.25
2023-10-24T04:25:21.791Z,98738.88
2023-10-24T04:26:23.372Z,98740.78
2023-10-24T04:27:24.934Z,98748.13
2023-10-24T04:28:26.529Z,98762.22
2023-10-24T04:29:28.151Z,98768.00
2023-10-24T04:30:29.795Z,98758.06
2023-10-24T04:31:31.470Z,98761.81
2023-10-24T04:32:33.159Z,98762.63
2023-10-24T04:33:34.837Z,98770.09
2023-10-24T04:34:36.495Z,98767.06
2023-10-24T04:35:47.139Z,98773.00
2023-10-24T04:36:48.749Z,98771.06
2023-10-24T04:37:50.380Z,98769.94
2023-10-24T04:38:51.979Z,98770.94
2023-10-24T04:39:53.557Z,98778.81
2023-10-24T04:40:55.158Z,98776.06
2023-10-24T04:41:56.811Z,98775.91
2023-10-24T04:42:58.401Z,98774.94
2023-10-24T04:43:59.995Z,98770.50
2023-10-24T04:45:01.570Z,98777.44
2023-10-24T04:46:03.166Z,98768.97
2023-10-24T04:47:05.055Z,98771.91
2023-10-24T04:48:06.926Z,98779.78
2023-10-24T04:49:08.590Z,98784.91
2023-10-24T04:50:10.734Z,98784.75
2023-10-24T04:51:12.760Z,98782.81
2023-10-24T04:52:14.362Z,98789.03
2023-10-24T04:53:16.080Z,98784.22
2023-10-24T04:54:17.643Z,98780.72
2023-10-24T04:55:19.299Z,98768.28
2023-10-24T04:56:20.887Z,98770.22
2023-10-24T04:57:22.462Z,98770.38
2023-10-24T04:58:24.102Z,98758.34
2023-10-24T04:59:25.723Z,98758.34
2023-10-24T05:00:27.310Z,98760.00
2023-10-24T05:01:29.063Z,98750.19
2023-10-24T05:02:30.741Z,98739.00
2023-10-24T05:03:35.128Z,98745.06
2023-10-24T05:04:36.840Z,98744.25
2023-10-24T05:05:38.437Z,98738.31
2023-10-24T05:06:40.091Z,98741.63
2023-10-24T05:07:41.676Z,98738.72
2023-10-24T05:08:43.310Z,98734.44
2023-10-24T05:09:44.882Z,98737.19
2023-10-24T05:10:48.224Z,98728.63
2023-10-24T05:11:49.909Z,98726.66
2023-10-24T05:12:51.491Z,98721.72
2023-10-24T05:13:53.059Z,98718.41
2023-10-24T05:14:54.695Z,98714.00
2023-10-24T05:15:56.328Z,98709.41
2023-10-24T05:16:58.002Z,98699.59
2023-10-24T05:17:59.724Z,98698.91
2023-10-24T05:19:01.345Z,98686.47
2023-10-24T05:20:03.251Z,98692.41
2023-10-24T05:21:04.851Z,98694.75
2023-10-24T05:22:06.414Z,98691.84
2023-10-24T05:23:08.070Z,98686.47
2023-10-24T05:24:09.848Z,98691.72
2023-10-24T05:25:11.395Z,98694.75
2023-10-24T05:26:12.977Z,98702.50
2023-10-24T05:27:14.596Z,98726.69
2023-10-24T05:28:16.272Z,98729.31
2023-10-24T05:29:17.898Z,98730.56
2023-10-24T05:30:19.582Z,98743.13
2023-10-24T05:31:21.241Z,98745.03
2023-10-24T05:32:23.036Z,98748.06
2023-10-24T05:33:24.686Z,98755.38
2023-10-24T05:34:30.131Z,98751.22
2023-10-24T05:35:31.760Z,98762.13
2023-10-24T05:36:33.370Z,98768.31
2023-10-24T05:37:35.028Z,98766.81
2023-10-24T05:38:36.658Z,98766.25
2023-10-24T05:39:38.260Z,98774.25
2023-10-24T05:40:40.029Z,98784.72
2023-10-24T05:41:41.664Z,98778.53
2023-10-24T05:42:43.490Z,98774.97
2023-10-24T05:43:45.151Z,98779.16
2023-10-24T05:44:46.865Z,98782.75
2023-10-24T05:45:48.489Z,98777.69
2023-10-24T05:46:53.556Z,98776.03
2023-10-24T05:47:56.849Z,98769.25
2023-10-24T05:48:58.490Z,98763.47
2023-10-24T05:50:00.196Z,98764.84
2023-10-24T05:51:01.842Z,98764.03
2023-10-24T05:52:03.608Z,98762.91
2023-10-24T05:53:05.285Z,98758.09
2023-10-24T05:54:06.944Z,98752.25
2023-10-24T05:55:09.010Z,98756.97
2023-10-24T05:56:10.606Z,98750.31
2023-10-24T05:57:12.191Z,98753.50
2023-10-24T05:58:13.753Z,98751.31
2023-10-24T05:59:18.225Z,98746.03
2023-10-24T06:00:20.158Z,98742.28
2023-10-24T06:01:21.884Z,98732.75
2023-10-24T06:02:23.638Z,98738.56
2023-10-24T06:03:25.339Z,98737.59
2023-10-24T06:04:26.986Z,98743.53
2023-10-24T06:05:28.651Z,98743.28
2023-10-24T06:06:30.254Z,98751.16
2023-10-24T06:07:31.834Z,98745.91
2023-10-24T06:08:33.704Z,98741.47
2023-10-24T06:09:35.337Z,98742.13
2023-10-24T06:10:37.563Z,98746.16
2023-10-24T06:11:39.928Z,98746.00
2023-10-24T06:12:41.517Z,98749.88
2023-10-24T06:13:43.431Z,98747.78
2023-10-24T06:14:45.069Z,98746.00
2023-10-24T06:15:46.673Z,98750.28
2023-10-24T06:16:48.268Z,98749.03
2023-10-24T06:17:49.878Z,98749.56
2023-10-24T06:18:51.486Z,98747.88
2023-10-24T06:19:53.107Z,98742.47
2023-10-24T06:20:54.794Z,98744.41
2023-10-24T06:21:56.451Z,98730.22
2023-10-24T06:22:58.067Z,98732.59
2023-10-24T06:23:59.685Z,98738.00
2023-10-24T06:25:01.351Z,98738.91
2023-10-24T06:26:03.035Z,98743.59
2023-10-24T06:27:04.981Z,98746.22
2023-10-24T06:28:07.458Z,98737.06
2023-10-24T06:29:09.063Z,98742.44
2023-10-24T06:30:11.152Z,98739.69
2023-10-24T06:31:13.572Z,98744.56
2023-10-24T06:32:15.223Z,98750.09
2023-10-24T06:33:16.923Z,98752.75
2023-10-24T06:34:18.611Z,98742.19
2023-10-24T06:35:20.226Z,98751.88
2023-10-24T06:36:21.819Z,98732.06
2023-10-24T06:37:23.465Z,98730.03
2023-10-24T06:38:25.217Z,98732.25
2023-10-24T06:39:28.672Z,98728.69
2023-10-24T06:40:30.716Z,98725.94
2023-10-24T06:41:32.329Z,98730.28
2023-10-24T06:42:33.896Z,98727.38
2023-10-24T06:43:35.921Z,98725.91
2023-10-24T06:44:37.544Z,98724.44
2023-10-24T06:45:39.209Z,98713.09
2023-10-24T06:46:40.861Z,98717.06
2023-10-24T06:47:42.558Z,98706.63
2023-10-24T06:48:44.128Z,98707.78
2023-10-24T06:49:45.705Z,98704.13
2023-10-24T06:50:47.354Z,98693.22
2023-10-24T06:51:48.928Z,98692.69
2023-10-24T06:52:50.584Z,98682.78
2023-10-24T06:53:52.243Z,98673.69
2023-10-24T06:54:53.843Z,98676.28
2023-10-24T06:56:01.874Z,98670.00
2023-10-24T06:57:03.816Z,98675.22
2023-10-24T06:58:05.784Z,98672.91
2023-10-24T06:59:07.336Z,98671.75
2023-10-24T07:00:09.257Z,98672.06
2023-10-24T07:01:10.874Z,98671.75
2023-10-24T07:02:12.518Z,98671.28
2023-10-24T07:03:14.254Z,98671.09
2023-10-24T07:04:15.922Z,98675.19
2023-10-24T07:05:17.665Z,98671.13
2023-10-24T07:06:19.301Z,98673.72
2023-10-24T07:07:20.929Z,98675.88
2023-10-24T07:08:22.683Z,98678.81
2023-10-24T07:09:24.383Z,98685.16
2023-10-24T07:10:26.096Z,98682.09
2023-10-24T07:11:27.697Z,98685.97
2023-10-24T07:12:29.327Z,98686.78
2023-10-24T07:13:30.911Z,98687.13
2023-10-24T07:16:38.923Z,98690.84
2023-10-24T07:17:40.676Z,98686.22
2023-10-24T07:18:42.513Z,98693.78
2023-10-24T07:19:44.179Z,98688.66
2023-10-24T07:20:45.811Z,98682.94
2023-10-24T07:21:47.749Z,98678.66
2023-10-24T07:22:49.405Z,98673.94
2023-10-24T07:23:51.060Z,98676.63
2023-10-24T07:24:52.679Z,98674.19
2023-10-24T07:25:57.810Z,98674.19
2023-10-24T07:26:59.539Z,98672.56
2023-10-24T07:28:01.179Z,98682.16
2023-10-24T07:29:02.904Z,98677.03
2023-10-24T07:30:04.869Z,98671.94
2023-10-24T07:31:06.552Z,98662.88
2023-10-24T07:32:08.425Z,98667.00
2023-10-24T07:33:10.293Z,98668.16
2023-10-24T07:34:11.966Z,98666.50
2023-10-24T07:35:13.643Z,98669.66
2023-10-24T07:36:16.230Z,98669.28
2023-10-24T07:37:17.918Z,98668.47
2023-10-24T07:38:19.820Z,98667.13
2023-10-24T07:39:21.454Z,98664.94
2023-10-24T07:40:23.164Z,98669.72
2023-10-24T07:41:24.862Z,98674.50
2023-10-24T07:42:26.482Z,98669.63
2023-10-24T07:43:28.299Z,98677.72
2023-10-24T07:44:30.138Z,98679.25
2023-10-24T07:45:32.166Z,98681.84
2023-10-24T07:46:33.916Z,98679.66
2023-10-24T07:47:35.776Z,98692.03
2023-10-24T07:48:37.479Z,98694.09
2023-10-24T07:49:39.127Z,98693.88
2023-10-24T07:50:40.766Z,98700.94
2023-10-24T07:51:42.378Z,98701.19
2023-10-24T07:52:44.083Z,98702.44
2023-10-24T07:53:45.743Z,98706.53
2023-10-24T07:54:47.390Z,98713.69
2023-10-24T07:55:49.300Z,98714.72
2023-10-24T07:56:50.984Z,98720.84
2023-10-24T07:57:52.618Z,98717.53
2023-10-24T07:58:54.291Z,98714.59
2023-10-24T07:59:55.948Z,98719.84
2023-10-24T08:00:57.674Z,98713.03
2023-10-24T08:02:00.350Z,98708.03
2023-10-24T08:03:02.146Z,98699.66
2023-10-24T08:04:04.084Z,98698.13
2023-10-24T08:05:06.270Z,98694.25
2023-10-24T08:06:08.033Z,98691.72
2023-10-24T08:07:09.728Z,98683.91
2023-10-24T08:08:11.472Z,98681.25
2023-10-24T08:09:13.221Z,98675.19
2023-10-24T08:10:15.034Z,98675.84
2023-10-24T08:11:16.645Z,98673.88
2023-10-24T08:12:18.331Z,98675.06
2023-10-24T08:13:19.951Z,98669.19
2023-10-24T08:14:21.625Z,98667.78
2023-10-24T08:15:23.282Z,98668.75
2023-10-24T08:16:24.958Z,98670.69
2023-10-24T08:17:26.689Z,98657.75
2023-10-24T08:18:28.675Z,98658.63
2023-10-24T08:19:30.357Z,98660.81
2023-10-24T08:20:32.028Z,98651.53
2023-10-24T08:21:33.648Z,98655.53
2023-10-24T08:22:35.320Z,98656.41
2023-10-24T08:23:36.982Z,98656.78
2023-10-24T08:24:38.582Z,98645.56
2023-10-24T08:25:40.243Z,98646.28
2023-10-24T08:26:46.764Z,98636.06
2023-10-24T08:27:54.113Z,98632.41
2023-10-24T08:28:55.772Z,98629.25
2023-10-24T08:29:57.451Z,98623.47
2023-10-24T08:30:59.171Z,98617.38
2023-10-24T08:32:02.191Z,98621.50
2023-10-24T08:33:05.619Z,98619.53
2023-10-24T08:34:07.311Z,98624.47
2023-10-24T08:35:09.488Z,98623.03
2023-10-24T08:36:11.131Z,98624.69
2023-10-24T08:37:12.734Z,98617.44
2023-10-24T08:38:14.503Z,98625.03
2023-10-24T08:39:16.118Z,98622.69
2023-10-24T08:40:17.953Z,98616.09
2023-10-24T08:41:21.289Z,98613.78
2023-10-24T08:42:22.984Z,98609.66
2023-10-24T08:43:26.080Z,98613.47
2023-10-24T08:44:28.508Z,98614.31
2023-10-24T08:45:31.956Z,98617.28
2023-10-24T08:46:34.046Z,98618.25
2023-10-24T08:47:37.097Z,98619.91
2023-10-24T08:48:38.767Z,98621.53
2023-10-24T08:49:41.714Z,98627.97
2023-10-24T08:50:47.061Z,98622.50
2023-10-24T08:51:49.162Z,98623.47
2023-10-24T08:52:52.286Z,98624.31
2023-10-24T08:53:53.926Z,98633.22
2023-10-24T08:54:55.508Z,98628.28
2023-10-24T08:55:57.369Z,98636.03
2023-10-24T08:57:02.723Z,98634.91
2023-10-24T08:58:04.573Z,98633.09
2023-10-24T08:59:09.493Z,98633.91
2023-10-24T09:00:13.901Z,98633.41
2023-10-24T09:01:15.937Z,98621.16
2023-10-24T09:02:18.733Z,98617.66
2023-10-24T09:03:20.509Z,98616.47
2023-10-24T09:04:23.169Z,98622.25
2023-10-24T09:05:27.399Z,98629.31
2023-10-24T09:06:30.072Z,98620.38
2023-10-24T09:07:31.697Z,98615.53
2023-10-24T09:08:36.794Z,98616.78
2023-10-24T09:09:38.377Z,98614.47
2023-10-24T09:10:39.943Z,98603.56
2023-10-24T09:12:00.514Z,98603.84
2023-10-24T09:13:05.226Z,98607.72
2023-10-24T09:14:06.879Z,98597.63
2023-10-24T09:15:09.805Z,98593.13
2023-10-24T09:16:12.328Z,98598.06
2023-10-24T09:17:15.113Z,98591.22
2023-10-24T09:18:17.097Z,98589.38
2023-10-24T09:19:19.849Z,98595.94
2023-10-24T09:20:21.595Z,98593.59
2023-10-24T09:21:23.230Z,98593.56
2023-10-24T09:22:28.277Z,98589.50
2023-10-24T09:23:32.225Z,98589.59
2023-10-24T09:24:34.036Z,98589.69
2023-10-24T09:25:36.202Z,98591.81
2023-10-24T09:26:37.819Z,98589.81
2023-10-24T09:27:39.414Z,98589.97
2023-10-24T09:28:41.054Z,98588.44
2023-10-24T09:29:43.047Z,98583.25
2023-10-24T09:30:45.212Z,98577.66
2023-10-24T09:31:52.770Z,98575.75
2023-10-24T09:32:54.421Z,98576.66
2023-10-24T09:33:56.081Z,98577.22
2023-10-24T09:35:04.551Z,98580.50
2023-10-24T09:37:14.082Z,98578.34
2023-10-24T09:38:15.696Z,98568.22
2023-10-24T09:39:17.728Z,98552.19
2023-10-24T09:40:19.331Z,98553.94
2023-10-24T09:41:21.093Z,98548.56
2023-10-24T09:42:31.723Z,98549.72
2023-10-24T09:43:40.457Z,98549.41
2023-10-24T09:44:42.531Z,98542.09
2023-10-24T09:45:45.549Z,98542.72
2023-10-24T09:46:47.417Z,98543.41
2023-10-24T09:47:52.216Z,98543.88
2023-10-24T09:48:56.106Z,98546.34
2023-10-24T09:49:58.087Z,98544.97
2023-10-24T09:51:01.506Z,98552.53
2023-10-24T09:52:03.504Z,98548.63
2023-10-24T09:53:06.374Z,98547.50
2023-10-24T09:54:08.353Z,98551.03
2023-10-24T09:55:10.337Z,98547.81
2023-10-24T09:56:14.097Z,98545.63
2023-10-24T09:57:19.398Z,98538.22
2023-10-24T09:58:25.505Z,98536.19
2023-10-24T09:59:27.667Z,98537.41
2023-10-24T10:00:31.179Z,98533.84
2023-10-24T10:01:33.714Z,98530.25
2023-10-24T10:02:39.478Z,98525.81
2023-10-24T10:03:43.512Z,98529.34
2023-10-24T10:04:45.905Z,98524.69
2023-10-24T10:05:49.624Z,98519.00
2023-10-24T10:06:59.384Z,98529.41
2023-10-24T10:08:06.057Z,98517.09
2023-10-24T10:09:12.827Z,98512.41
2023-10-24T10:10:14.616Z,98511.09
2023-10-24T10:11:16.256Z,98511.53
2023-10-24T10:12:18.007Z,98506.22
2023-10-24T10:13:23.695Z,98502.97
2023-10-24T10:14:37.154Z,98506.44
2023-10-24T10:15:46.549Z,98505.06
2023-10-24T10:17:14.644Z,98502.41
2023-10-24T10:18:43.919Z,98511.03
2023-10-24T10:19:48.527Z,98502.47
2023-10-24T10:21:08.994Z,98503.53
2023-10-24T10:22:54.876Z,98499.28
2023-10-24T10:24:13.505Z,98498.94
2023-10-24T10:25:27.217Z,98497.66
2023-10-24T10:26:31.417Z,98501.38
2023-10-24T10:27:44.538Z,98500.19
2023-10-24T10:29:07.898Z,98505.97
2023-10-24T10:30:27.454Z,98504.16
2023-10-24T10:32:46.385Z,98494.38
2023-10-24T10:33:19.961Z,98489.22
2023-10-24T10:34:33.380Z,98484.78
2023-10-24T10:35:51.656Z,98481.91
2023-10-24T10:36:55.277Z,98476.41
2023-10-24T10:38:01.556Z,98470.09
2023-10-24T10:39:09.968Z,98466.41
2023-10-24T10:40:20.655Z,98458.66
2023-10-24T10:41:22.161Z,98453.28
2023-10-24T10:42:49.210Z,98447.94
2023-10-24T10:44:01.388Z,98440.81
2023-10-24T10:45:24.006Z,98441.81
2023-10-24T10:46:30.756Z,98441.22
2023-10-24T10:47:32.477Z,98432.81
2023-10-24T10:48:34.110Z,98435.47
2023-10-24T10:49:42.961Z,98439.97
2023-10-24T10:50:44.595Z,98443.44
2023-10-24T10:51:46.247Z,98443.03
2023-10-24T10:53:00.333Z,98431.41
2023-10-24T10:54:01.867Z,98433.38
2023-10-24T10:55:45.001Z,98433.19
2023-10-24T10:56:49.146Z,98433.19
2023-10-24T10:58:08.321Z,98434.03
2023-10-24T10:59:09.889Z,98430.13
2023-10-24T11:00:32.198Z,98432.41
2023-10-24T11:01:42.272Z,98440.22
2023-10-24T11:03:04.491Z,98449.22
2023-10-24T11:04:15.769Z,98447.78
2023-10-24T11:05:36.102Z,98455.78
2023-10-24T11:06:42.383Z,98450.63
2023-10-24T11:07:53.994Z,98454.69
2023-10-24T11:09:11.730Z,98451.41
2023-10-24T11:10:17.326Z,98448.09
2023-10-24T11:11:20.846Z,98453.84
2023-10-24T11:12:22.599Z,98450.38
2023-10-24T11:13:34.506Z,98445.81
2023-10-24T11:14:35.997Z,98455.56
2023-10-24T11:15:38.270Z,98457.84
2023-10-24T11:16:42.698Z,98451.34
2023-10-24T11:17:45.112Z,98457.91
2023-10-24T11:18:46.867Z,98458.75
2023-10-24T11:19:48.640Z,98455.69
2023-10-24T11:20:50.396Z,98459.75
2023-10-24T11:21:55.555Z,98463.88
2023-10-24T11:22:57.206Z,98454.63
2023-10-24T11:24:00.105Z,98451.94
2023-10-24T11:25:09.202Z,98458.09
2023-10-24T11:26:11.395Z,98456.88
2023-10-24T11:27:13.315Z,98447.28
2023-10-24T11:28:15.993Z,98444.03
2023-10-24T11:29:17.611Z,98441.19
2023-10-24T11:30:19.243Z,98438.94
2023-10-24T11:31:26.006Z,98443.88
2023-10-24T11:32:27.761Z,98440.59
2023-10-24T11:33:29.437Z,98438.53
2023-10-24T11:34:31.075Z,98433.19
2023-10-24T11:35:32.715Z,98433.38
2023-10-24T11:36:34.382Z,98426.25
2023-10-24T11:37:36.012Z,98433.59
2023-10-24T11:38:37.621Z,98430.94
2023-10-24T11:39:42.685Z,98432.56
2023-10-24T11:40:45.107Z,98428.03
2023-10-24T11:41:46.735Z,98426.63
2023-10-24T11:42:48.327Z,98426.22
2023-10-24T11:43:49.935Z,98422.09
2023-10-24T11:44:53.114Z,98414.97
2023-10-24T11:45:54.820Z,98422.94
2023-10-24T11:46:56.539Z,98416.75
2023-10-24T11:47:58.422Z,98416.53
2023-10-24T11:49:00.032Z,98408.34
2023-10-24T11:50:01.755Z,98412.47
2023-10-24T11:51:03.564Z,98401.19
2023-10-24T11:52:05.426Z,98402.22
2023-10-24T11:53:07.073Z,98398.50
2023-10-24T11:54:09.317Z,98393.78
2023-10-24T11:55:11.500Z,98387.00
2023-10-24T11:56:13.152Z,98391.13
2023-10-24T11:57:14.830Z,98383.16
2023-10-24T11:58:17.320Z,98381.31
2023-10-24T11:59:18.917Z,98379.28
2023-10-24T12:00:20.680Z,98376.81
2023-10-24T12:01:24.193Z,98377.44
2023-10-24T12:02:25.837Z,98364.38
2023-10-24T12:03:40.244Z,98370.91
2023-10-24T12:04:41.996Z,98373.38
2023-10-24T12:05:53.611Z,98360.09
2023-10-24T12:07:05.465Z,98371.72
2023-10-24T12:08:07.177Z,98359.44
2023-10-24T12:09:08.853Z,98359.25
2023-10-24T12:10:11.322Z,98364.56
2023-10-24T12:11:13.786Z,98359.22
2023-10-24T12:12:15.422Z,98351.88
2023-10-24T12:13:19.661Z,98349.22
2023-10-24T12:14:21.937Z,98348.81
2023-10-24T12:15:23.517Z,98344.53
2023-10-24T12:16:43.176Z,98345.09
2023-10-24T12:17:53.503Z,98356.72
2023-10-24T12:18:55.166Z,98350.63
2023-10-24T12:19:56.871Z,98349.78
2023-10-24T12:20:58.535Z,98347.72
2023-10-24T12:22:00.130Z,98338.50
2023-10-24T12:23:01.790Z,98337.47
2023-10-24T12:24:03.535Z,98330.97